sensor_id;sensor_type;location;lat;lon;timestamp;P1;durP1;ratioP1;P2;durP2;ratioP2
53594;SDS011;39479;45.720;11.310;2023-03-14T00:01:50;23.20;;;18.63;;
53594;SDS011;39479;45.720;11.310;2023-03-14T00:04:16;23.23;;;19.85;;
53594;SDS011;39479;45.720;11.310;2023-03-14T00:06:42;22.77;;;18.95;;
53594;SDS011;39479;45.720;11.310;2023-03-14T00:09:08;24.75;;;19.98;;
53594;SDS011;39479;45.720;11.310;2023-03-14T00:11:34;28.33;;;21.15;;
53594;SDS011;39479;45.720;11.310;2023-03-14T00:14:00;23.70;;;20.17;;
53594;SDS011;39479;45.720;11.310;2023-03-14T00:16:27;25.52;;;20.55;;
53594;SDS011;39479;45.720;11.310;2023-03-14T00:18:53;26.15;;;20.58;;
53594;SDS011;39479;45.720;11.310;2023-03-14T00:21:19;26.50;;;20.50;;
53594;SDS011;39479;45.720;11.310;2023-03-14T00:23:45;26.45;;;21.77;;
53594;SDS011;39479;45.720;11.310;2023-03-14T00:26:12;26.48;;;21.08;;
53594;SDS011;39479;45.720;11.310;2023-03-14T00:28:39;26.38;;;21.95;;
53594;SDS011;39479;45.720;11.310;2023-03-14T00:31:06;26.05;;;22.00;;
53594;SDS011;39479;45.720;11.310;2023-03-14T00:33:32;27.58;;;22.67;;
53594;SDS011;39479;45.720;11.310;2023-03-14T00:35:59;25.95;;;22.80;;
53594;SDS011;39479;45.720;11.310;2023-03-14T00:38:26;29.15;;;23.90;;
53594;SDS011;39479;45.720;11.310;2023-03-14T00:40:52;27.58;;;23.02;;
53594;SDS011;39479;45.720;11.310;2023-03-14T00:43:18;33.50;;;23.73;;
53594;SDS011;39479;45.720;11.310;2023-03-14T00:45:46;28.33;;;24.10;;
53594;SDS011;39479;45.720;11.310;2023-03-14T00:48:12;28.38;;;23.05;;
53594;SDS011;39479;45.720;11.310;2023-03-14T00:50:39;26.95;;;23.17;;
53594;SDS011;39479;45.720;11.310;2023-03-14T00:53:05;28.88;;;24.67;;
53594;SDS011;39479;45.720;11.310;2023-03-14T00:55:31;35.20;;;25.27;;
53594;SDS011;39479;45.720;11.310;2023-03-14T00:57:57;30.27;;;24.52;;
53594;SDS011;39479;45.720;11.310;2023-03-14T01:00:23;29.40;;;26.20;;
53594;SDS011;39479;45.720;11.310;2023-03-14T01:02:49;30.15;;;25.88;;
53594;SDS011;39479;45.720;11.310;2023-03-14T01:05:15;30.95;;;25.73;;
53594;SDS011;39479;45.720;11.310;2023-03-14T01:07:41;30.15;;;26.25;;
53594;SDS011;39479;45.720;11.310;2023-03-14T01:10:07;28.33;;;25.30;;
53594;SDS011;39479;45.720;11.310;2023-03-14T01:12:33;32.67;;;26.05;;
53594;SDS011;39479;45.720;11.310;2023-03-14T01:14:59;29.65;;;26.33;;
53594;SDS011;39479;45.720;11.310;2023-03-14T01:17:25;30.25;;;26.90;;
53594;SDS011;39479;45.720;11.310;2023-03-14T01:19:51;34.22;;;26.65;;
53594;SDS011;39479;45.720;11.310;2023-03-14T01:22:17;30.73;;;25.80;;
53594;SDS011;39479;45.720;11.310;2023-03-14T01:24:46;30.33;;;26.63;;
53594;SDS011;39479;45.720;11.310;2023-03-14T01:27:12;30.80;;;26.17;;
53594;SDS011;39479;45.720;11.310;2023-03-14T01:29:38;29.38;;;25.48;;
53594;SDS011;39479;45.720;11.310;2023-03-14T01:32:04;30.40;;;25.42;;
53594;SDS011;39479;45.720;11.310;2023-03-14T01:34:30;32.35;;;25.92;;
53594;SDS011;39479;45.720;11.310;2023-03-14T01:36:56;29.90;;;26.40;;
53594;SDS011;39479;45.720;11.310;2023-03-14T01:39:22;30.73;;;25.95;;
53594;SDS011;39479;45.720;11.310;2023-03-14T01:41:48;32.85;;;27.30;;
53594;SDS011;39479;45.720;11.310;2023-03-14T01:44:14;30.25;;;25.95;;
53594;SDS011;39479;45.720;11.310;2023-03-14T01:46:44;31.77;;;26.50;;
53594;SDS011;39479;45.720;11.310;2023-03-14T01:49:12;29.65;;;25.75;;
53594;SDS011;39479;45.720;11.310;2023-03-14T01:51:44;31.80;;;27.88;;
53594;SDS011;39479;45.720;11.310;2023-03-14T01:56:38;32.90;;;26.95;;
53594;SDS011;39479;45.720;11.310;2023-03-14T01:59:06;29.88;;;25.98;;
53594;SDS011;39479;45.720;11.310;2023-03-14T02:01:33;30.30;;;26.48;;
53594;SDS011;39479;45.720;11.310;2023-03-14T02:04:00;30.70;;;27.45;;
53594;SDS011;39479;45.720;11.310;2023-03-14T02:06:29;32.28;;;27.50;;
53594;SDS011;39479;45.720;11.310;2023-03-14T02:08:57;33.45;;;26.42;;
53594;SDS011;39479;45.720;11.310;2023-03-14T02:11:26;31.95;;;26.95;;
53594;SDS011;39479;45.720;11.310;2023-03-14T02:13:55;35.22;;;27.83;;
53594;SDS011;39479;45.720;11.310;2023-03-14T02:16:21;33.22;;;27.00;;
53594;SDS011;39479;45.720;11.310;2023-03-14T02:18:47;32.10;;;26.83;;
53594;SDS011;39479;45.720;11.310;2023-03-14T02:21:19;30.40;;;26.58;;
53594;SDS011;39479;45.720;11.310;2023-03-14T02:26:22;34.47;;;26.30;;
53594;SDS011;39479;45.720;11.310;2023-03-14T02:28:50;29.80;;;26.42;;
53594;SDS011;39479;45.720;11.310;2023-03-14T02:31:18;30.92;;;26.92;;
53594;SDS011;39479;45.720;11.310;2023-03-14T02:33:46;30.17;;;26.25;;
53594;SDS011;39479;45.720;11.310;2023-03-14T02:36:13;29.98;;;26.73;;
53594;SDS011;39479;45.720;11.310;2023-03-14T02:41:06;30.90;;;25.55;;
53594;SDS011;39479;45.720;11.310;2023-03-14T02:43:32;29.33;;;25.27;;
53594;SDS011;39479;45.720;11.310;2023-03-14T02:45:58;31.23;;;25.73;;
53594;SDS011;39479;45.720;11.310;2023-03-14T02:48:27;33.05;;;26.58;;
53594;SDS011;39479;45.720;11.310;2023-03-14T02:50:55;31.92;;;26.17;;
53594;SDS011;39479;45.720;11.310;2023-03-14T02:53:24;30.23;;;26.88;;
53594;SDS011;39479;45.720;11.310;2023-03-14T02:55:50;32.17;;;28.05;;
53594;SDS011;39479;45.720;11.310;2023-03-14T02:58:17;32.08;;;27.25;;
53594;SDS011;39479;45.720;11.310;2023-03-14T03:00:43;28.88;;;25.77;;
53594;SDS011;39479;45.720;11.310;2023-03-14T03:03:09;29.90;;;25.25;;
53594;SDS011;39479;45.720;11.310;2023-03-14T03:05:35;32.38;;;26.77;;
53594;SDS011;39479;45.720;11.310;2023-03-14T03:08:01;30.63;;;27.15;;
53594;SDS011;39479;45.720;11.310;2023-03-14T03:10:27;31.08;;;27.40;;
53594;SDS011;39479;45.720;11.310;2023-03-14T03:12:53;29.65;;;25.38;;
53594;SDS011;39479;45.720;11.310;2023-03-14T03:15:20;24.50;;;21.92;;
53594;SDS011;39479;45.720;11.310;2023-03-14T03:17:46;32.28;;;27.50;;
53594;SDS011;39479;45.720;11.310;2023-03-14T03:20:12;32.63;;;26.98;;
53594;SDS011;39479;45.720;11.310;2023-03-14T03:22:38;32.15;;;28.48;;
53594;SDS011;39479;45.720;11.310;2023-03-14T03:25:04;30.75;;;27.00;;
53594;SDS011;39479;45.720;11.310;2023-03-14T03:27:32;33.03;;;27.75;;
53594;SDS011;39479;45.720;11.310;2023-03-14T03:29:58;29.70;;;26.33;;
53594;SDS011;39479;45.720;11.310;2023-03-14T03:32:24;33.00;;;28.27;;
53594;SDS011;39479;45.720;11.310;2023-03-14T03:34:50;34.38;;;28.17;;
53594;SDS011;39479;45.720;11.310;2023-03-14T03:37:16;34.20;;;27.67;;
53594;SDS011;39479;45.720;11.310;2023-03-14T03:39:43;30.80;;;26.85;;
53594;SDS011;39479;45.720;11.310;2023-03-14T03:42:09;32.53;;;28.08;;
53594;SDS011;39479;45.720;11.310;2023-03-14T03:44:35;29.30;;;25.45;;
53594;SDS011;39479;45.720;11.310;2023-03-14T03:47:01;30.25;;;26.33;;
53594;SDS011;39479;45.720;11.310;2023-03-14T03:49:30;32.15;;;25.80;;
53594;SDS011;39479;45.720;11.310;2023-03-14T03:51:57;30.95;;;27.27;;
53594;SDS011;39479;45.720;11.310;2023-03-14T03:54:23;31.95;;;27.65;;
53594;SDS011;39479;45.720;11.310;2023-03-14T03:56:49;31.75;;;27.33;;
53594;SDS011;39479;45.720;11.310;2023-03-14T03:59:15;34.78;;;29.90;;
53594;SDS011;39479;45.720;11.310;2023-03-14T04:01:41;35.10;;;29.60;;
53594;SDS011;39479;45.720;11.310;2023-03-14T04:04:07;34.63;;;28.30;;
53594;SDS011;39479;45.720;11.310;2023-03-14T04:06:33;36.83;;;27.98;;
53594;SDS011;39479;45.720;11.310;2023-03-14T04:08:59;33.08;;;28.38;;
53594;SDS011;39479;45.720;11.310;2023-03-14T04:11:25;35.33;;;29.40;;
53594;SDS011;39479;45.720;11.310;2023-03-14T04:13:51;33.33;;;29.38;;
53594;SDS011;39479;45.720;11.310;2023-03-14T04:16:19;33.25;;;28.58;;
53594;SDS011;39479;45.720;11.310;2023-03-14T04:18:45;33.55;;;28.83;;
53594;SDS011;39479;45.720;11.310;2023-03-14T04:21:11;39.13;;;31.05;;
53594;SDS011;39479;45.720;11.310;2023-03-14T04:23:38;35.83;;;30.75;;
53594;SDS011;39479;45.720;11.310;2023-03-14T04:26:04;32.28;;;28.77;;
53594;SDS011;39479;45.720;11.310;2023-03-14T04:28:30;32.75;;;28.75;;
53594;SDS011;39479;45.720;11.310;2023-03-14T04:30:56;34.45;;;29.73;;
53594;SDS011;39479;45.720;11.310;2023-03-14T04:33:22;34.78;;;29.05;;
53594;SDS011;39479;45.720;11.310;2023-03-14T04:35:48;34.05;;;29.25;;
53594;SDS011;39479;45.720;11.310;2023-03-14T04:38:17;32.72;;;29.13;;
53594;SDS011;39479;45.720;11.310;2023-03-14T04:40:43;34.10;;;29.58;;
53594;SDS011;39479;45.720;11.310;2023-03-14T04:43:10;34.08;;;28.75;;
53594;SDS011;39479;45.720;11.310;2023-03-14T04:45:36;32.67;;;27.60;;
53594;SDS011;39479;45.720;11.310;2023-03-14T04:48:02;33.08;;;27.00;;
53594;SDS011;39479;45.720;11.310;2023-03-14T04:50:28;32.90;;;27.73;;
53594;SDS011;39479;45.720;11.310;2023-03-14T04:52:54;30.45;;;26.80;;
53594;SDS011;39479;45.720;11.310;2023-03-14T04:55:20;31.55;;;27.45;;
53594;SDS011;39479;45.720;11.310;2023-03-14T04:57:46;32.03;;;26.60;;
53594;SDS011;39479;45.720;11.310;2023-03-14T05:00:12;32.92;;;27.08;;
53594;SDS011;39479;45.720;11.310;2023-03-14T05:02:38;29.55;;;26.23;;
53594;SDS011;39479;45.720;11.310;2023-03-14T05:05:04;29.33;;;25.98;;
53594;SDS011;39479;45.720;11.310;2023-03-14T05:07:31;30.42;;;25.90;;
53594;SDS011;39479;45.720;11.310;2023-03-14T05:09:57;31.42;;;26.98;;
53594;SDS011;39479;45.720;11.310;2023-03-14T05:12:23;31.05;;;26.10;;
53594;SDS011;39479;45.720;11.310;2023-03-14T05:14:49;29.45;;;25.98;;
53594;SDS011;39479;45.720;11.310;2023-03-14T05:17:15;34.20;;;28.27;;
53594;SDS011;39479;45.720;11.310;2023-03-14T05:19:41;32.42;;;27.80;;
53594;SDS011;39479;45.720;11.310;2023-03-14T05:22:07;31.10;;;27.65;;
53594;SDS011;39479;45.720;11.310;2023-03-14T05:24:33;33.17;;;28.58;;
53594;SDS011;39479;45.720;11.310;2023-03-14T05:26:59;34.92;;;27.60;;
53594;SDS011;39479;45.720;11.310;2023-03-14T05:29:25;29.42;;;25.75;;
53594;SDS011;39479;45.720;11.310;2023-03-14T05:31:51;31.80;;;26.55;;
53594;SDS011;39479;45.720;11.310;2023-03-14T05:34:18;30.92;;;26.15;;
53594;SDS011;39479;45.720;11.310;2023-03-14T05:36:44;31.20;;;24.13;;
53594;SDS011;39479;45.720;11.310;2023-03-14T05:39:10;31.80;;;24.92;;
53594;SDS011;39479;45.720;11.310;2023-03-14T05:41:36;28.83;;;24.67;;
53594;SDS011;39479;45.720;11.310;2023-03-14T05:44:02;29.75;;;24.20;;
53594;SDS011;39479;45.720;11.310;2023-03-14T05:46:28;27.38;;;23.55;;
53594;SDS011;39479;45.720;11.310;2023-03-14T05:48:55;29.35;;;23.73;;
53594;SDS011;39479;45.720;11.310;2023-03-14T05:51:22;27.48;;;23.10;;
53594;SDS011;39479;45.720;11.310;2023-03-14T05:53:48;27.52;;;22.08;;
53594;SDS011;39479;45.720;11.310;2023-03-14T05:56:14;28.85;;;22.10;;
53594;SDS011;39479;45.720;11.310;2023-03-14T05:58:40;28.17;;;23.08;;
53594;SDS011;39479;45.720;11.310;2023-03-14T06:01:06;28.35;;;23.63;;
53594;SDS011;39479;45.720;11.310;2023-03-14T06:03:32;26.67;;;23.30;;
53594;SDS011;39479;45.720;11.310;2023-03-14T06:05:59;31.13;;;23.98;;
53594;SDS011;39479;45.720;11.310;2023-03-14T06:08:25;29.38;;;24.15;;
53594;SDS011;39479;45.720;11.310;2023-03-14T06:10:51;34.30;;;26.75;;
53594;SDS011;39479;45.720;11.310;2023-03-14T06:13:17;33.10;;;24.20;;
53594;SDS011;39479;45.720;11.310;2023-03-14T06:15:44;31.88;;;25.60;;
53594;SDS011;39479;45.720;11.310;2023-03-14T06:18:10;30.48;;;24.73;;
53594;SDS011;39479;45.720;11.310;2023-03-14T06:20:37;32.88;;;26.38;;
53594;SDS011;39479;45.720;11.310;2023-03-14T06:23:07;35.53;;;26.70;;
53594;SDS011;39479;45.720;11.310;2023-03-14T06:25:34;31.85;;;26.25;;
53594;SDS011;39479;45.720;11.310;2023-03-14T06:28:00;31.55;;;25.77;;
53594;SDS011;39479;45.720;11.310;2023-03-14T06:30:26;30.05;;;25.33;;
53594;SDS011;39479;45.720;11.310;2023-03-14T06:32:53;31.67;;;26.83;;
53594;SDS011;39479;45.720;11.310;2023-03-14T06:35:20;31.65;;;25.55;;
53594;SDS011;39479;45.720;11.310;2023-03-14T06:37:46;31.25;;;25.35;;
53594;SDS011;39479;45.720;11.310;2023-03-14T06:40:12;31.25;;;25.75;;
53594;SDS011;39479;45.720;11.310;2023-03-14T06:42:43;31.00;;;24.95;;
53594;SDS011;39479;45.720;11.310;2023-03-14T06:45:09;31.98;;;25.33;;
53594;SDS011;39479;45.720;11.310;2023-03-14T06:47:36;33.10;;;25.77;;
53594;SDS011;39479;45.720;11.310;2023-03-14T06:50:03;28.92;;;24.77;;
53594;SDS011;39479;45.720;11.310;2023-03-14T06:52:29;31.85;;;26.15;;
53594;SDS011;39479;45.720;11.310;2023-03-14T06:54:55;30.83;;;26.63;;
53594;SDS011;39479;45.720;11.310;2023-03-14T06:57:21;30.88;;;24.92;;
53594;SDS011;39479;45.720;11.310;2023-03-14T06:59:47;30.05;;;26.27;;
53594;SDS011;39479;45.720;11.310;2023-03-14T07:02:13;33.95;;;25.08;;
53594;SDS011;39479;45.720;11.310;2023-03-14T07:04:39;29.92;;;24.55;;
53594;SDS011;39479;45.720;11.310;2023-03-14T07:07:06;32.08;;;26.23;;
53594;SDS011;39479;45.720;11.310;2023-03-14T07:09:32;31.88;;;25.70;;
53594;SDS011;39479;45.720;11.310;2023-03-14T07:11:58;31.13;;;25.73;;
53594;SDS011;39479;45.720;11.310;2023-03-14T07:14:24;33.55;;;25.75;;
53594;SDS011;39479;45.720;11.310;2023-03-14T07:16:50;32.47;;;25.77;;
53594;SDS011;39479;45.720;11.310;2023-03-14T07:19:16;33.20;;;26.33;;
53594;SDS011;39479;45.720;11.310;2023-03-14T07:21:42;32.13;;;26.02;;
53594;SDS011;39479;45.720;11.310;2023-03-14T07:24:08;32.10;;;26.52;;
53594;SDS011;39479;45.720;11.310;2023-03-14T07:26:34;31.90;;;26.08;;
53594;SDS011;39479;45.720;11.310;2023-03-14T07:29:01;31.92;;;25.65;;
53594;SDS011;39479;45.720;11.310;2023-03-14T07:31:28;33.80;;;27.00;;
53594;SDS011;39479;45.720;11.310;2023-03-14T07:33:54;32.25;;;27.30;;
53594;SDS011;39479;45.720;11.310;2023-03-14T07:36:20;32.60;;;26.88;;
53594;SDS011;39479;45.720;11.310;2023-03-14T07:38:46;36.00;;;29.08;;
53594;SDS011;39479;45.720;11.310;2023-03-14T07:41:13;32.58;;;26.88;;
53594;SDS011;39479;45.720;11.310;2023-03-14T07:43:39;32.63;;;26.92;;
53594;SDS011;39479;45.720;11.310;2023-03-14T07:46:05;33.35;;;26.85;;
53594;SDS011;39479;45.720;11.310;2023-03-14T07:48:31;34.30;;;26.23;;
53594;SDS011;39479;45.720;11.310;2023-03-14T07:50:57;33.47;;;25.88;;
53594;SDS011;39479;45.720;11.310;2023-03-14T07:53:23;29.73;;;25.88;;
53594;SDS011;39479;45.720;11.310;2023-03-14T07:55:50;29.35;;;25.77;;
53594;SDS011;39479;45.720;11.310;2023-03-14T07:58:17;32.88;;;27.13;;
53594;SDS011;39479;45.720;11.310;2023-03-14T08:00:43;30.75;;;26.38;;
53594;SDS011;39479;45.720;11.310;2023-03-14T08:03:09;31.77;;;25.27;;
53594;SDS011;39479;45.720;11.310;2023-03-14T08:05:36;30.83;;;24.83;;
53594;SDS011;39479;45.720;11.310;2023-03-14T08:08:02;32.85;;;27.48;;
53594;SDS011;39479;45.720;11.310;2023-03-14T08:10:29;29.30;;;25.25;;
53594;SDS011;39479;45.720;11.310;2023-03-14T08:12:55;32.20;;;26.83;;
53594;SDS011;39479;45.720;11.310;2023-03-14T08:15:22;30.00;;;25.85;;
53594;SDS011;39479;45.720;11.310;2023-03-14T08:17:48;30.67;;;25.88;;
53594;SDS011;39479;45.720;11.310;2023-03-14T08:20:18;27.98;;;23.85;;
53594;SDS011;39479;45.720;11.310;2023-03-14T08:22:44;27.92;;;24.50;;
53594;SDS011;39479;45.720;11.310;2023-03-14T08:25:10;26.60;;;23.23;;
53594;SDS011;39479;45.720;11.310;2023-03-14T08:27:36;27.00;;;23.70;;
53594;SDS011;39479;45.720;11.310;2023-03-14T08:30:04;29.60;;;24.70;;
53594;SDS011;39479;45.720;11.310;2023-03-14T08:32:30;28.10;;;24.27;;
53594;SDS011;39479;45.720;11.310;2023-03-14T08:34:56;27.88;;;23.80;;
53594;SDS011;39479;45.720;11.310;2023-03-14T08:37:23;27.27;;;23.65;;
53594;SDS011;39479;45.720;11.310;2023-03-14T08:39:50;26.27;;;23.27;;
53594;SDS011;39479;45.720;11.310;2023-03-14T08:42:16;26.55;;;23.25;;
53594;SDS011;39479;45.720;11.310;2023-03-14T08:44:42;25.67;;;22.98;;
53594;SDS011;39479;45.720;11.310;2023-03-14T08:47:08;25.63;;;22.10;;
53594;SDS011;39479;45.720;11.310;2023-03-14T08:49:35;24.02;;;21.23;;
53594;SDS011;39479;45.720;11.310;2023-03-14T08:52:01;25.38;;;21.73;;
53594;SDS011;39479;45.720;11.310;2023-03-14T08:54:28;25.52;;;21.80;;
53594;SDS011;39479;45.720;11.310;2023-03-14T08:56:54;23.77;;;21.17;;
53594;SDS011;39479;45.720;11.310;2023-03-14T08:59:20;25.88;;;20.92;;
53594;SDS011;39479;45.720;11.310;2023-03-14T09:01:46;23.08;;;19.50;;
53594;SDS011;39479;45.720;11.310;2023-03-14T09:04:12;23.05;;;20.45;;
53594;SDS011;39479;45.720;11.310;2023-03-14T09:06:38;23.08;;;20.08;;
53594;SDS011;39479;45.720;11.310;2023-03-14T09:09:04;24.60;;;20.88;;
53594;SDS011;39479;45.720;11.310;2023-03-14T09:11:30;22.80;;;19.60;;
53594;SDS011;39479;45.720;11.310;2023-03-14T09:13:57;24.50;;;20.70;;
53594;SDS011;39479;45.720;11.310;2023-03-14T09:16:23;24.52;;;20.42;;
53594;SDS011;39479;45.720;11.310;2023-03-14T09:18:49;22.10;;;19.73;;
53594;SDS011;39479;45.720;11.310;2023-03-14T09:21:18;27.15;;;22.55;;
53594;SDS011;39479;45.720;11.310;2023-03-14T09:23:44;26.58;;;23.23;;
53594;SDS011;39479;45.720;11.310;2023-03-14T09:26:10;26.17;;;22.75;;
53594;SDS011;39479;45.720;11.310;2023-03-14T09:28:36;25.80;;;22.02;;
53594;SDS011;39479;45.720;11.310;2023-03-14T09:31:06;24.27;;;21.60;;
53594;SDS011;39479;45.720;11.310;2023-03-14T09:33:33;28.05;;;22.63;;
53594;SDS011;39479;45.720;11.310;2023-03-14T09:35:59;24.77;;;21.52;;
53594;SDS011;39479;45.720;11.310;2023-03-14T09:38:25;24.85;;;21.48;;
53594;SDS011;39479;45.720;11.310;2023-03-14T09:40:51;24.08;;;21.40;;
53594;SDS011;39479;45.720;11.310;2023-03-14T09:43:18;24.60;;;21.50;;
53594;SDS011;39479;45.720;11.310;2023-03-14T09:45:46;27.00;;;22.73;;
53594;SDS011;39479;45.720;11.310;2023-03-14T09:48:21;25.98;;;22.02;;
53594;SDS011;39479;45.720;11.310;2023-03-14T09:50:48;23.52;;;20.40;;
53594;SDS011;39479;45.720;11.310;2023-03-14T09:53:20;24.55;;;20.77;;
53594;SDS011;39479;45.720;11.310;2023-03-14T09:55:48;23.40;;;20.45;;
53594;SDS011;39479;45.720;11.310;2023-03-14T09:58:19;23.38;;;20.73;;
53594;SDS011;39479;45.720;11.310;2023-03-14T10:00:45;24.05;;;21.50;;
53594;SDS011;39479;45.720;11.310;2023-03-14T10:05:38;24.58;;;21.63;;
53594;SDS011;39479;45.720;11.310;2023-03-14T10:08:04;27.60;;;21.92;;
53594;SDS011;39479;45.720;11.310;2023-03-14T10:10:31;26.42;;;22.77;;
53594;SDS011;39479;45.720;11.310;2023-03-14T10:12:58;24.17;;;20.10;;
53594;SDS011;39479;45.720;11.310;2023-03-14T10:15:34;24.40;;;20.27;;
53594;SDS011;39479;45.720;11.310;2023-03-14T10:18:01;23.77;;;20.08;;
53594;SDS011;39479;45.720;11.310;2023-03-14T10:20:46;23.88;;;20.08;;
53594;SDS011;39479;45.720;11.310;2023-03-14T10:25:40;23.42;;;20.67;;
53594;SDS011;39479;45.720;11.310;2023-03-14T10:30:51;24.10;;;21.55;;
53594;SDS011;39479;45.720;11.310;2023-03-14T10:35:44;24.15;;;21.25;;
53594;SDS011;39479;45.720;11.310;2023-03-14T10:38:15;21.70;;;19.30;;
53594;SDS011;39479;45.720;11.310;2023-03-14T10:40:51;17.08;;;14.45;;
53594;SDS011;39479;45.720;11.310;2023-03-14T10:43:19;17.55;;;15.73;;
53594;SDS011;39479;45.720;11.310;2023-03-14T10:45:51;16.15;;;14.52;;
53594;SDS011;39479;45.720;11.310;2023-03-14T10:53:16;15.00;;;12.98;;
53594;SDS011;39479;45.720;11.310;2023-03-14T10:55:44;14.60;;;12.70;;
53594;SDS011;39479;45.720;11.310;2023-03-14T10:58:21;16.00;;;13.23;;
53594;SDS011;39479;45.720;11.310;2023-03-14T11:00:49;16.38;;;14.13;;
53594;SDS011;39479;45.720;11.310;2023-03-14T11:03:16;13.20;;;11.75;;
53594;SDS011;39479;45.720;11.310;2023-03-14T11:05:47;12.32;;;10.30;;
53594;SDS011;39479;45.720;11.310;2023-03-14T11:08:19;12.95;;;11.02;;
53594;SDS011;39479;45.720;11.310;2023-03-14T11:10:48;14.98;;;13.05;;
53594;SDS011;39479;45.720;11.310;2023-03-14T11:20:47;15.88;;;14.25;;
53594;SDS011;39479;45.720;11.310;2023-03-14T11:23:17;15.52;;;13.93;;
53594;SDS011;39479;45.720;11.310;2023-03-14T11:31:00;12.02;;;10.82;;
53594;SDS011;39479;45.720;11.310;2023-03-14T11:33:28;8.85;;;7.95;;
53594;SDS011;39479;45.720;11.310;2023-03-14T11:40:49;11.35;;;10.15;;
53594;SDS011;39479;45.720;11.310;2023-03-14T11:46:04;13.00;;;10.23;;
53594;SDS011;39479;45.720;11.310;2023-03-14T11:48:35;11.07;;;9.23;;
53594;SDS011;39479;45.720;11.310;2023-03-14T11:51:06;11.00;;;9.00;;
53594;SDS011;39479;45.720;11.310;2023-03-14T11:53:45;15.30;;;12.50;;
53594;SDS011;39479;45.720;11.310;2023-03-14T11:56:16;20.73;;;16.63;;
53594;SDS011;39479;45.720;11.310;2023-03-14T11:58:47;17.75;;;15.93;;
53594;SDS011;39479;45.720;11.310;2023-03-14T12:01:15;14.55;;;13.00;;
53594;SDS011;39479;45.720;11.310;2023-03-14T12:03:46;14.02;;;12.35;;
53594;SDS011;39479;45.720;11.310;2023-03-14T12:09:01;13.07;;;11.40;;
53594;SDS011;39479;45.720;11.310;2023-03-14T12:11:31;15.70;;;12.95;;
53594;SDS011;39479;45.720;11.310;2023-03-14T12:13:59;15.43;;;13.73;;
53594;SDS011;39479;45.720;11.310;2023-03-14T12:18:52;15.55;;;12.10;;
53594;SDS011;39479;45.720;11.310;2023-03-14T12:21:18;13.63;;;11.55;;
53594;SDS011;39479;45.720;11.310;2023-03-14T12:23:54;15.43;;;12.70;;
53594;SDS011;39479;45.720;11.310;2023-03-14T12:26:21;14.43;;;12.55;;
53594;SDS011;39479;45.720;11.310;2023-03-14T12:41:52;21.35;;;16.75;;
53594;SDS011;39479;45.720;11.310;2023-03-14T12:46:54;16.30;;;13.93;;
53594;SDS011;39479;45.720;11.310;2023-03-14T12:49:20;17.88;;;16.00;;
53594;SDS011;39479;45.720;11.310;2023-03-14T12:51:47;18.73;;;16.65;;
53594;SDS011;39479;45.720;11.310;2023-03-14T12:59:38;16.17;;;14.18;;
53594;SDS011;39479;45.720;11.310;2023-03-14T13:02:14;17.88;;;13.90;;
53594;SDS011;39479;45.720;11.310;2023-03-14T13:09:57;23.55;;;18.67;;
53594;SDS011;39479;45.720;11.310;2023-03-14T13:12:27;21.40;;;18.42;;
53594;SDS011;39479;45.720;11.310;2023-03-14T13:14:57;22.92;;;19.92;;
53594;SDS011;39479;45.720;11.310;2023-03-14T13:17:26;21.77;;;18.33;;
53594;SDS011;39479;45.720;11.310;2023-03-14T13:19:53;22.52;;;18.42;;
53594;SDS011;39479;45.720;11.310;2023-03-14T13:22:24;21.42;;;19.23;;
53594;SDS011;39479;45.720;11.310;2023-03-14T13:24:58;23.13;;;19.63;;
53594;SDS011;39479;45.720;11.310;2023-03-14T13:27:24;24.23;;;19.55;;
53594;SDS011;39479;45.720;11.310;2023-03-14T13:29:50;21.42;;;17.58;;
53594;SDS011;39479;45.720;11.310;2023-03-14T13:32:19;23.20;;;18.42;;
53594;SDS011;39479;45.720;11.310;2023-03-14T13:34:46;25.80;;;18.50;;
53594;SDS011;39479;45.720;11.310;2023-03-14T13:37:17;26.02;;;20.90;;
53594;SDS011;39479;45.720;11.310;2023-03-14T13:39:48;23.63;;;19.05;;
53594;SDS011;39479;45.720;11.310;2023-03-14T13:42:15;25.58;;;19.77;;
53594;SDS011;39479;45.720;11.310;2023-03-14T13:44:41;20.33;;;17.05;;
53594;SDS011;39479;45.720;11.310;2023-03-14T13:47:17;98.38;;;76.72;;
53594;SDS011;39479;45.720;11.310;2023-03-14T13:49:43;82.18;;;63.03;;
53594;SDS011;39479;45.720;11.310;2023-03-14T13:52:23;24.42;;;21.00;;
53594;SDS011;39479;45.720;11.310;2023-03-14T13:54:53;17.80;;;14.98;;
53594;SDS011;39479;45.720;11.310;2023-03-14T13:57:19;14.75;;;12.48;;
53594;SDS011;39479;45.720;11.310;2023-03-14T13:59:53;15.13;;;13.07;;
53594;SDS011;39479;45.720;11.310;2023-03-14T14:02:23;18.98;;;13.88;;
53594;SDS011;39479;45.720;11.310;2023-03-14T14:04:50;20.70;;;14.35;;
53594;SDS011;39479;45.720;11.310;2023-03-14T14:07:16;16.98;;;15.20;;
53594;SDS011;39479;45.720;11.310;2023-03-14T14:09:44;16.92;;;13.45;;
53594;SDS011;39479;45.720;11.310;2023-03-14T14:17:20;14.65;;;12.38;;
53594;SDS011;39479;45.720;11.310;2023-03-14T14:19:47;17.30;;;13.13;;
53594;SDS011;39479;45.720;11.310;2023-03-14T14:22:14;17.13;;;14.75;;
53594;SDS011;39479;45.720;11.310;2023-03-14T14:24:40;20.30;;;17.00;;
53594;SDS011;39479;45.720;11.310;2023-03-14T14:27:20;19.55;;;16.02;;
53594;SDS011;39479;45.720;11.310;2023-03-14T14:29:59;20.63;;;16.15;;
53594;SDS011;39479;45.720;11.310;2023-03-14T14:32:26;16.77;;;14.77;;
53594;SDS011;39479;45.720;11.310;2023-03-14T14:37:28;17.70;;;14.27;;
53594;SDS011;39479;45.720;11.310;2023-03-14T14:40:40;16.52;;;14.82;;
53594;SDS011;39479;45.720;11.310;2023-03-14T14:42:44;16.48;;;12.95;;
53594;SDS011;39479;45.720;11.310;2023-03-14T14:45:13;15.05;;;12.82;;
53594;SDS011;39479;45.720;11.310;2023-03-14T14:47:48;17.42;;;13.32;;
53594;SDS011;39479;45.720;11.310;2023-03-14T14:50:36;16.42;;;13.75;;
53594;SDS011;39479;45.720;11.310;2023-03-14T14:53:03;15.32;;;12.93;;
53594;SDS011;39479;45.720;11.310;2023-03-14T14:55:33;14.15;;;11.82;;
53594;SDS011;39479;45.720;11.310;2023-03-14T14:58:11;16.25;;;12.82;;
53594;SDS011;39479;45.720;11.310;2023-03-14T15:00:39;17.10;;;12.50;;
53594;SDS011;39479;45.720;11.310;2023-03-14T15:03:05;14.30;;;12.13;;
53594;SDS011;39479;45.720;11.310;2023-03-14T15:05:36;14.07;;;11.95;;
53594;SDS011;39479;45.720;11.310;2023-03-14T15:08:08;22.80;;;16.98;;
53594;SDS011;39479;45.720;11.310;2023-03-14T15:10:34;25.60;;;19.58;;
53594;SDS011;39479;45.720;11.310;2023-03-14T15:13:00;18.98;;;15.65;;
53594;SDS011;39479;45.720;11.310;2023-03-14T15:15:26;14.23;;;12.43;;
53594;SDS011;39479;45.720;11.310;2023-03-14T15:17:52;16.77;;;12.65;;
53594;SDS011;39479;45.720;11.310;2023-03-14T15:20:18;17.00;;;12.93;;
53594;SDS011;39479;45.720;11.310;2023-03-14T15:22:46;14.98;;;12.75;;
53594;SDS011;39479;45.720;11.310;2023-03-14T15:25:12;14.18;;;12.55;;
53594;SDS011;39479;45.720;11.310;2023-03-14T15:27:38;17.70;;;12.00;;
53594;SDS011;39479;45.720;11.310;2023-03-14T15:30:13;13.15;;;11.73;;
53594;SDS011;39479;45.720;11.310;2023-03-14T15:32:39;13.77;;;12.07;;